Terminal Aerodrome Forecast
Issued by NWS

Current Version | Previous Version | Text Only | Print | Product List | Glossary On
Versions: 1 2 3 4 5 6 7 8 9 10 11 12 13 14 15 16 17 18 19 20 21 22 23 24 25 26 27 28 29 30 31 32 33 34 35 36 37 38 39 40 41 42 43 44
000
FTUS43 KDTX 040520
TAFYIP
TAF
KYIP 040520Z 0406/0506 28013KT P6SM BKN025
     FM041000 24007KT P6SM BKN025 OVC150
     FM041400 28013G20KT P6SM BKN035
     FM042000 28013KT P6SM SCT035 BKN200
     FM050100 28007KT P6SM BKN035=

USA.gov is the U.S. government's official web portal to all federal, state and local government web resources and services.